createdAt,value
2022-12-29T05:15:21.125Z,0.00
2022-12-29T05:16:21.239Z,0.00
2022-12-29T05:17:21.088Z,0.00
2022-12-29T05:18:21.076Z,0.00
2022-12-29T05:19:21.069Z,0.00
2022-12-29T05:20:21.068Z,0.00
2022-12-29T05:21:21.038Z,0.00
2022-12-29T05:22:21.030Z,0.00
2022-12-29T05:23:21.017Z,0.00
2022-12-29T05:24:21.018Z,0.00
2022-12-29T05:25:21.006Z,0.00
2022-12-29T05:26:20.992Z,0.00
2022-12-29T05:27:20.988Z,0.00
2022-12-29T05:28:20.965Z,0.00
2022-12-29T05:29:20.939Z,0.00
2022-12-29T05:30:20.979Z,0.00
2022-12-29T05:31:20.968Z,0.00
2022-12-29T05:32:20.918Z,0.00
2022-12-29T05:33:20.918Z,0.00
2022-12-29T05:34:20.887Z,0.00
2022-12-29T05:35:20.882Z,0.00
2022-12-29T05:36:20.869Z,0.00
2022-12-29T05:37:20.844Z,0.00
2022-12-29T05:38:20.849Z,0.00
2022-12-29T05:39:20.851Z,0.00
2022-12-29T05:40:20.810Z,0.00
2022-12-29T05:41:20.807Z,0.00
2022-12-29T05:42:20.787Z,0.00
2022-12-29T05:43:20.784Z,0.00
2022-12-29T05:44:20.764Z,0.00
2022-12-29T05:45:20.756Z,0.00
2022-12-29T05:46:20.814Z,0.00
2022-12-29T05:47:20.728Z,0.00
2022-12-29T05:48:20.714Z,0.00
2022-12-29T05:49:20.717Z,0.00
2022-12-29T05:50:20.689Z,0.00
2022-12-29T05:51:20.677Z,0.00
2022-12-29T05:52:20.718Z,0.00
2022-12-29T05:53:20.644Z,0.00
2022-12-29T05:54:20.634Z,0.00
2022-12-29T05:55:20.627Z,0.00
2022-12-29T05:56:20.634Z,0.00
2022-12-29T05:57:20.585Z,0.00
2022-12-29T05:58:20.593Z,0.00
2022-12-29T05:59:20.577Z,0.00
2022-12-29T06:00:20.596Z,0.00
2022-12-29T06:01:20.628Z,0.00
2022-12-29T06:02:20.628Z,0.00
2022-12-29T06:03:20.856Z,0.00
2022-12-29T06:04:20.502Z,0.00
2022-12-29T06:05:20.497Z,0.00
2022-12-29T06:06:20.517Z,0.00
2022-12-29T06:07:20.511Z,0.00
2022-12-29T06:08:20.462Z,0.00
2022-12-29T06:09:20.438Z,0.00
2022-12-29T06:10:20.433Z,0.00
2022-12-29T06:11:20.441Z,0.00
2022-12-29T06:12:20.401Z,0.00
2022-12-29T06:13:20.409Z,0.00
2022-12-29T06:14:20.375Z,0.00
2022-12-29T06:15:20.368Z,0.00
2022-12-29T06:16:20.479Z,0.00
2022-12-29T06:17:20.332Z,0.00
2022-12-29T06:18:20.668Z,0.00
2022-12-29T06:19:20.307Z,0.00
2022-12-29T06:20:20.330Z,0.00
2022-12-29T06:21:20.348Z,0.00
2022-12-29T06:22:20.269Z,0.00
2022-12-29T06:23:20.279Z,0.00
2022-12-29T06:24:20.249Z,0.00
2022-12-29T06:25:20.227Z,0.00
2022-12-29T06:26:20.235Z,0.00
2022-12-29T06:27:20.251Z,0.00
2022-12-29T06:28:20.250Z,0.00
2022-12-29T06:29:20.177Z,0.00
2022-12-29T06:30:20.189Z,0.00
2022-12-29T06:31:20.213Z,0.00
2022-12-29T06:32:20.158Z,0.00
2022-12-29T06:33:20.148Z,0.00
2022-12-29T06:34:20.119Z,0.00
2022-12-29T06:35:20.117Z,0.00
2022-12-29T06:36:20.097Z,0.00
2022-12-29T06:37:20.091Z,0.00
2022-12-29T06:38:20.094Z,0.00
2022-12-29T06:39:20.068Z,0.00
2022-12-29T06:40:20.057Z,0.00
2022-12-29T06:41:20.032Z,0.00
2022-12-29T06:42:20.050Z,0.00
2022-12-29T06:43:20.033Z,0.00
2022-12-29T06:44:20.000Z,0.00
2022-12-29T06:45:19.979Z,0.00
2022-12-29T06:46:20.120Z,0.00
2022-12-29T06:47:19.979Z,0.00
2022-12-29T06:48:19.960Z,0.00
2022-12-29T06:49:19.928Z,0.00
2022-12-29T06:50:19.922Z,0.00
2022-12-29T06:51:19.896Z,0.00
2022-12-29T06:52:19.892Z,0.00
2022-12-29T06:53:19.886Z,0.00
2022-12-29T06:54:19.866Z,0.00
2022-12-29T06:55:19.860Z,0.00
2022-12-29T06:56:19.836Z,0.00
2022-12-29T06:57:19.828Z,0.00
2022-12-29T06:58:19.835Z,0.00
2022-12-29T06:59:19.801Z,0.00
2022-12-29T07:00:22.932Z,0.00
2022-12-29T07:01:19.895Z,0.00
2022-12-29T07:02:19.856Z,0.00
2022-12-29T07:03:19.798Z,0.00
2022-12-29T07:04:19.745Z,0.00
2022-12-29T07:05:19.731Z,4.00
2022-12-29T07:06:19.704Z,4.00
2022-12-29T07:07:19.701Z,0.00
2022-12-29T07:08:19.710Z,4.00
2022-12-29T07:09:19.677Z,4.00
2022-12-29T07:10:19.647Z,4.00
2022-12-29T07:11:19.643Z,8.00
2022-12-29T07:12:19.632Z,8.00
2022-12-29T07:13:19.619Z,8.00
2022-12-29T07:14:19.639Z,12.00
2022-12-29T07:15:19.597Z,12.00
2022-12-29T07:16:19.619Z,12.00
2022-12-29T07:17:19.565Z,16.00
2022-12-29T07:18:19.551Z,16.00
2022-12-29T07:19:19.560Z,20.00
2022-12-29T07:20:26.348Z,20.00
2022-12-29T07:21:20.505Z,24.00
2022-12-29T07:22:19.498Z,28.00
2022-12-29T07:23:19.495Z,28.00
2022-12-29T07:24:19.486Z,32.00
2022-12-29T07:25:19.464Z,36.00
2022-12-29T07:26:19.434Z,40.00
2022-12-29T07:27:19.433Z,48.00
2022-12-29T07:28:19.419Z,52.00
2022-12-29T07:29:19.411Z,60.00
2022-12-29T07:30:19.387Z,64.00
2022-12-29T07:31:19.529Z,80.00
2022-12-29T07:32:19.383Z,88.00
2022-12-29T07:33:19.345Z,100.00
2022-12-29T07:34:19.353Z,108.00
2022-12-29T07:35:19.325Z,112.00
2022-12-29T07:36:19.303Z,124.00
2022-12-29T07:37:19.306Z,136.00
2022-12-29T07:38:19.279Z,156.00
2022-12-29T07:39:19.300Z,168.00
2022-12-29T07:40:19.264Z,188.00
2022-12-29T07:41:19.242Z,200.00
2022-12-29T07:42:19.229Z,212.00
2022-12-29T07:43:19.225Z,228.00
2022-12-29T07:44:19.219Z,244.00
2022-12-29T07:45:19.202Z,260.00
2022-12-29T07:46:54.605Z,272.00
2022-12-29T07:47:20.173Z,288.00
2022-12-29T07:48:19.149Z,300.00
2022-12-29T07:49:19.166Z,320.00
2022-12-29T07:50:19.127Z,328.00
2022-12-29T07:51:19.121Z,336.00
2022-12-29T07:52:19.104Z,332.00
2022-12-29T07:53:19.089Z,328.00
2022-12-29T07:54:19.108Z,340.00
2022-12-29T07:55:19.069Z,376.00
2022-12-29T07:56:19.053Z,412.00
2022-12-29T07:57:19.039Z,436.00
2022-12-29T07:58:19.019Z,456.00
2022-12-29T07:59:19.020Z,472.00
2022-12-29T08:00:18.998Z,488.00
2022-12-29T08:01:19.140Z,524.00
2022-12-29T08:02:19.097Z,560.00
2022-12-29T08:03:18.996Z,588.00
2022-12-29T08:04:19.000Z,616.00
2022-12-29T08:05:18.946Z,636.00
2022-12-29T08:06:18.916Z,660.00
2022-12-29T08:07:18.916Z,688.00
2022-12-29T08:08:18.898Z,712.00
2022-12-29T08:09:22.796Z,736.00
2022-12-29T08:10:19.864Z,752.00
2022-12-29T08:11:18.870Z,776.00
2022-12-29T08:12:18.846Z,808.00
2022-12-29T08:13:18.837Z,832.00
2022-12-29T08:14:18.835Z,864.00
2022-12-29T08:15:18.802Z,884.00
2022-12-29T08:16:18.839Z,904.00
2022-12-29T08:17:18.798Z,924.00
2022-12-29T08:18:18.767Z,952.00
2022-12-29T08:19:18.766Z,968.00
2022-12-29T08:20:18.738Z,1008.00
2022-12-29T08:21:18.717Z,1052.00
2022-12-29T08:22:18.713Z,1108.00
2022-12-29T08:23:18.693Z,1172.00
2022-12-29T08:24:18.692Z,1224.00
2022-12-29T08:25:18.665Z,1280.00
2022-12-29T08:26:18.665Z,1224.00
2022-12-29T08:27:21.028Z,1304.00
2022-12-29T08:28:18.643Z,1348.00
2022-12-29T08:29:18.638Z,1404.00
2022-12-29T08:30:18.607Z,1396.00
2022-12-29T08:31:18.644Z,1288.00
2022-12-29T08:32:18.581Z,1216.00
2022-12-29T08:33:18.555Z,1228.00
2022-12-29T08:34:18.583Z,1252.00
2022-12-29T08:35:18.547Z,1240.00
2022-12-29T08:36:18.563Z,1288.00
2022-12-29T08:37:18.503Z,1240.00
2022-12-29T08:38:18.501Z,1172.00
2022-12-29T08:39:18.492Z,1156.00
2022-12-29T08:40:18.501Z,1156.00
2022-12-29T08:41:18.456Z,1176.00
2022-12-29T08:42:18.442Z,1164.00
2022-12-29T08:43:18.734Z,1140.00
2022-12-29T08:44:18.462Z,1424.00
2022-12-29T08:45:18.396Z,1316.00
2022-12-29T08:46:18.493Z,1448.00
2022-12-29T08:47:18.382Z,1572.00
2022-12-29T08:48:18.402Z,1648.00
2022-12-29T08:49:18.369Z,1772.00
2022-12-29T08:50:18.387Z,1740.00
2022-12-29T08:51:22.921Z,1764.00
2022-12-29T08:53:28.248Z,2060.00
2022-12-29T08:54:28.281Z,4716.00
2022-12-29T08:55:28.208Z,4312.00
2022-12-29T08:56:28.136Z,2840.00
2022-12-29T08:57:28.126Z,2148.00
2022-12-29T08:58:28.118Z,2052.00
2022-12-29T08:59:28.091Z,2012.00
2022-12-29T09:00:28.091Z,2080.00
2022-12-29T09:01:28.121Z,2136.00
2022-12-29T09:02:28.553Z,2060.00
2022-12-29T09:04:29.267Z,2060.00
2022-12-29T09:05:28.012Z,2284.00
2022-12-29T09:06:28.001Z,2244.00
2022-12-29T09:07:27.986Z,2344.00
2022-12-29T09:08:27.969Z,5860.00
2022-12-29T09:09:27.977Z,1968.00
2022-12-29T09:10:27.936Z,1976.00
2022-12-29T09:11:27.929Z,2144.00
2022-12-29T09:12:32.967Z,2412.00
2022-12-29T09:13:28.909Z,6700.00
2022-12-29T09:14:27.905Z,2768.00
2022-12-29T09:15:27.888Z,6832.00
2022-12-29T09:16:27.991Z,7728.00
2022-12-29T09:17:27.860Z,4732.00
2022-12-29T09:18:27.845Z,5156.00
2022-12-29T09:19:27.851Z,3128.00
2022-12-29T09:20:27.808Z,3580.00
2022-12-29T09:21:27.809Z,3256.00
2022-12-29T09:22:27.785Z,18336.00
2022-12-29T09:23:27.780Z,6536.00
2022-12-29T09:24:27.785Z,26432.00
2022-12-29T09:25:27.769Z,26080.00
2022-12-29T09:26:27.739Z,26624.00
2022-12-29T09:27:27.751Z,27456.00
2022-12-29T09:28:27.709Z,22976.00
2022-12-29T09:29:27.732Z,2840.00
2022-12-29T09:30:27.686Z,2280.00
2022-12-29T09:31:27.742Z,2204.00
2022-12-29T09:32:33.416Z,2208.00
2022-12-29T09:33:28.664Z,2452.00
2022-12-29T09:34:27.648Z,2580.00
2022-12-29T09:35:27.626Z,2688.00
2022-12-29T09:36:27.607Z,2024.00
2022-12-29T09:37:27.605Z,1552.00
2022-12-29T09:38:27.606Z,1544.00
2022-12-29T09:39:27.717Z,1552.00
2022-12-29T09:40:27.569Z,1416.00
2022-12-29T09:41:27.555Z,2060.00
2022-12-29T09:42:27.531Z,1616.00
2022-12-29T09:43:27.527Z,1564.00
2022-12-29T09:44:27.579Z,1620.00
2022-12-29T09:45:27.495Z,1696.00
2022-12-29T09:46:27.536Z,1424.00
2022-12-29T09:47:27.476Z,1540.00
2022-12-29T09:48:27.456Z,1912.00
2022-12-29T09:49:27.554Z,2136.00
2022-12-29T09:50:27.426Z,2044.00
2022-12-29T09:51:27.416Z,2180.00
2022-12-29T09:52:27.415Z,2040.00
2022-12-29T09:53:27.410Z,1756.00
2022-12-29T09:54:27.374Z,1668.00
2022-12-29T09:55:27.376Z,1452.00
2022-12-29T09:56:27.355Z,1288.00
2022-12-29T09:57:27.337Z,1172.00
2022-12-29T09:58:27.327Z,1052.00
2022-12-29T09:59:27.313Z,1140.00
2022-12-29T10:00:27.316Z,1256.00
2022-12-29T10:01:27.444Z,1176.00
2022-12-29T10:02:27.378Z,1340.00
2022-12-29T10:03:27.354Z,1480.00
2022-12-29T10:04:27.242Z,1748.00
2022-12-29T10:05:27.245Z,1968.00
2022-12-29T10:06:27.217Z,2284.00
2022-12-29T10:07:30.144Z,2848.00
2022-12-29T10:08:27.198Z,2768.00
2022-12-29T10:09:27.185Z,1660.00
2022-12-29T10:10:27.173Z,1484.00
2022-12-29T10:11:27.164Z,1508.00
2022-12-29T10:12:27.145Z,1404.00
2022-12-29T10:13:27.133Z,1836.00
2022-12-29T10:14:27.114Z,2296.00
2022-12-29T10:15:27.123Z,2808.00
2022-12-29T10:16:27.165Z,3024.00
2022-12-29T10:17:27.081Z,3676.00
2022-12-29T10:18:27.071Z,3012.00
2022-12-29T10:19:32.768Z,2924.00
2022-12-29T10:20:28.093Z,3548.00
2022-12-29T10:21:27.038Z,2876.00
2022-12-29T10:22:27.021Z,2416.00
2022-12-29T10:23:27.052Z,2124.00
2022-12-29T10:24:26.985Z,1636.00
2022-12-29T10:25:31.129Z,1140.00
2022-12-29T10:26:27.963Z,988.00
2022-12-29T10:27:26.949Z,1020.00
2022-12-29T10:28:26.943Z,1112.00
2022-12-29T10:29:26.921Z,1500.00
2022-12-29T10:30:26.920Z,1592.00
2022-12-29T10:31:26.962Z,1472.00
2022-12-29T10:32:26.911Z,1756.00
2022-12-29T10:33:26.872Z,1476.00
2022-12-29T10:34:26.851Z,1724.00
2022-12-29T10:35:26.873Z,1544.00
2022-12-29T10:36:26.841Z,1476.00
2022-12-29T10:37:33.461Z,1148.00
2022-12-29T10:38:27.801Z,1148.00
2022-12-29T10:39:26.793Z,1320.00
2022-12-29T10:40:26.796Z,6308.00
2022-12-29T10:41:26.785Z,1740.00
2022-12-29T10:42:26.755Z,1600.00
2022-12-29T10:43:26.754Z,1608.00
2022-12-29T10:44:26.732Z,1528.00
2022-12-29T10:45:26.751Z,1416.00
2022-12-29T10:46:26.716Z,1496.00
2022-12-29T10:47:26.690Z,1744.00
2022-12-29T10:48:31.621Z,2280.00
2022-12-29T10:49:27.661Z,1916.00
2022-12-29T10:50:26.658Z,1988.00
2022-12-29T10:51:26.646Z,1668.00
2022-12-29T10:52:26.629Z,2124.00
2022-12-29T10:53:26.617Z,3956.00
2022-12-29T10:54:26.608Z,3800.00
2022-12-29T10:55:26.610Z,4028.00
2022-12-29T10:56:26.572Z,5016.00
2022-12-29T10:57:26.588Z,4764.00
2022-12-29T10:58:26.634Z,5904.00
2022-12-29T10:59:26.552Z,4392.00
2022-12-29T11:00:26.545Z,32800.00
2022-12-29T11:01:26.647Z,4336.00
2022-12-29T11:02:26.621Z,3536.00
2022-12-29T11:03:26.657Z,4200.00
2022-12-29T11:04:26.538Z,3444.00
2022-12-29T11:05:26.481Z,2896.00
2022-12-29T11:06:26.502Z,3952.00
2022-12-29T11:07:27.510Z,4240.00
2022-12-29T11:08:26.426Z,2864.00
2022-12-29T11:09:41.416Z,2632.00
2022-12-29T11:10:27.539Z,1912.00
2022-12-29T11:11:26.388Z,1852.00
2022-12-29T11:12:26.366Z,2184.00
2022-12-29T11:13:26.413Z,2704.00
2022-12-29T11:14:26.398Z,2704.00
2022-12-29T11:15:26.348Z,2264.00
2022-12-29T11:16:26.368Z,2756.00
2022-12-29T11:17:26.437Z,4268.00
2022-12-29T11:18:26.310Z,4572.00
2022-12-29T11:19:26.277Z,3532.00
2022-12-29T11:20:26.408Z,4264.00
2022-12-29T11:21:26.258Z,3572.00
2022-12-29T11:22:26.277Z,4276.00
2022-12-29T11:23:26.236Z,3688.00
2022-12-29T11:24:26.218Z,4788.00
2022-12-29T11:25:26.238Z,4960.00
2022-12-29T11:26:31.756Z,6116.00
2022-12-29T11:27:27.171Z,5948.00
2022-12-29T11:28:26.177Z,5572.00
2022-12-29T11:29:26.173Z,5276.00
2022-12-29T11:30:26.148Z,4592.00
2022-12-29T11:31:26.141Z,4112.00
2022-12-29T11:32:28.821Z,3824.00
2022-12-29T11:33:26.087Z,4940.00
2022-12-29T11:34:26.104Z,7080.00
2022-12-29T11:35:26.067Z,10416.00
2022-12-29T11:36:26.122Z,10260.00
2022-12-29T11:37:26.045Z,10116.00
2022-12-29T11:38:26.042Z,4944.00
2022-12-29T11:39:26.038Z,4696.00
2022-12-29T11:40:26.025Z,4000.00
2022-12-29T11:41:26.047Z,19072.00
2022-12-29T11:42:26.010Z,3140.00
2022-12-29T11:43:25.978Z,2468.00
2022-12-29T11:44:25.956Z,2200.00
2022-12-29T11:45:25.951Z,2896.00
2022-12-29T11:46:25.979Z,2648.00
2022-12-29T11:47:25.918Z,2464.00
2022-12-29T11:48:25.905Z,3368.00
2022-12-29T11:49:25.884Z,8308.00
2022-12-29T11:50:25.877Z,5332.00
2022-12-29T11:51:25.893Z,4336.00
2022-12-29T11:52:25.844Z,2728.00
2022-12-29T11:53:25.832Z,1684.00
2022-12-29T11:54:25.825Z,1364.00
2022-12-29T11:55:25.813Z,1508.00
2022-12-29T11:56:26.065Z,1544.00
2022-12-29T11:57:25.799Z,1544.00
2022-12-29T11:58:25.778Z,1600.00
2022-12-29T11:59:25.760Z,1680.00
2022-12-29T12:00:25.744Z,2616.00
2022-12-29T12:01:25.831Z,3212.00
2022-12-29T12:02:25.764Z,2628.00
2022-12-29T12:03:25.862Z,2764.00
2022-12-29T12:04:25.823Z,2412.00
2022-12-29T12:05:25.690Z,1840.00
2022-12-29T12:06:25.703Z,1772.00
2022-12-29T12:07:25.675Z,1636.00
2022-12-29T12:08:25.648Z,2132.00
2022-12-29T12:09:25.635Z,1916.00
2022-12-29T12:10:25.631Z,2304.00
2022-12-29T12:11:25.611Z,3612.00
2022-12-29T12:12:25.592Z,4232.00
2022-12-29T12:13:25.582Z,4484.00
2022-12-29T12:14:25.570Z,4876.00
2022-12-29T12:15:25.563Z,3500.00
2022-12-29T12:16:25.591Z,2036.00
2022-12-29T12:17:25.538Z,1848.00
2022-12-29T12:18:25.511Z,1876.00
2022-12-29T12:19:25.509Z,2044.00
2022-12-29T12:20:25.500Z,2416.00
2022-12-29T12:21:25.500Z,2796.00
2022-12-29T12:22:25.461Z,2608.00
2022-12-29T12:23:25.451Z,2164.00
2022-12-29T12:24:25.435Z,1792.00
2022-12-29T12:25:25.424Z,1996.00
2022-12-29T12:26:25.429Z,2804.00
2022-12-29T12:27:25.408Z,4248.00
2022-12-29T12:28:25.405Z,3364.00
2022-12-29T12:29:25.370Z,5776.00
2022-12-29T12:30:25.359Z,4464.00
2022-12-29T12:31:25.418Z,2868.00
2022-12-29T12:32:25.334Z,2428.00
2022-12-29T12:33:25.344Z,2316.00
2022-12-29T12:34:25.316Z,2592.00
2022-12-29T12:35:25.308Z,3012.00
2022-12-29T12:36:25.302Z,2744.00
2022-12-29T12:37:25.277Z,2540.00
2022-12-29T12:38:25.261Z,1844.00
2022-12-29T12:39:25.244Z,1852.00
2022-12-29T12:40:25.234Z,2204.00
2022-12-29T12:41:25.221Z,2504.00
2022-12-29T12:42:25.201Z,2928.00
2022-12-29T12:43:25.193Z,1880.00
2022-12-29T12:44:25.199Z,1144.00
2022-12-29T12:45:25.171Z,1068.00
2022-12-29T12:46:25.213Z,1184.00
2022-12-29T12:47:25.139Z,1268.00
2022-12-29T12:48:25.136Z,1452.00
2022-12-29T12:49:25.121Z,1672.00
2022-12-29T12:50:25.115Z,1780.00
2022-12-29T12:51:25.103Z,1212.00
2022-12-29T12:52:25.069Z,1344.00
2022-12-29T12:53:25.059Z,1456.00
2022-12-29T12:54:25.062Z,1396.00
2022-12-29T12:55:25.060Z,1252.00
2022-12-29T12:56:25.079Z,1660.00
2022-12-29T12:57:25.025Z,1896.00
2022-12-29T12:58:25.007Z,1480.00
2022-12-29T12:59:24.981Z,1504.00
2022-12-29T13:00:24.972Z,1520.00
2022-12-29T13:01:25.201Z,1540.00
2022-12-29T13:02:25.098Z,2384.00
2022-12-29T13:03:24.993Z,1916.00
2022-12-29T13:04:24.926Z,2008.00
2022-12-29T13:05:27.012Z,1660.00
2022-12-29T13:06:24.931Z,1572.00
2022-12-29T13:07:24.878Z,2072.00
2022-12-29T13:08:24.886Z,2508.00
2022-12-29T13:09:24.859Z,3388.00
2022-12-29T13:10:24.837Z,1720.00
2022-12-29T13:11:24.850Z,1464.00
2022-12-29T13:12:24.825Z,1348.00
2022-12-29T13:13:24.859Z,1604.00
2022-12-29T13:14:24.789Z,1928.00
2022-12-29T13:15:24.789Z,2040.00
2022-12-29T13:16:24.807Z,1852.00
2022-12-29T13:17:24.748Z,1616.00
2022-12-29T13:18:24.738Z,1408.00
2022-12-29T13:19:24.726Z,1492.00
2022-12-29T13:20:24.732Z,1832.00
2022-12-29T13:21:24.728Z,1920.00
2022-12-29T13:22:24.685Z,2052.00
2022-12-29T13:23:24.710Z,1540.00
2022-12-29T13:24:24.663Z,1176.00
2022-12-29T13:25:24.650Z,868.00
2022-12-29T13:26:24.659Z,1028.00
2022-12-29T13:27:24.642Z,852.00
2022-12-29T13:28:24.646Z,732.00
2022-12-29T13:29:24.598Z,644.00
2022-12-29T13:30:24.627Z,520.00
2022-12-29T13:31:24.598Z,468.00
2022-12-29T13:32:24.608Z,496.00
2022-12-29T13:33:24.600Z,560.00
2022-12-29T13:34:24.528Z,600.00
2022-12-29T13:35:24.516Z,728.00
2022-12-29T13:36:24.518Z,864.00
2022-12-29T13:37:24.495Z,852.00
2022-12-29T13:38:24.476Z,740.00
2022-12-29T13:39:24.474Z,712.00
2022-12-29T13:40:24.445Z,792.00
2022-12-29T13:41:24.544Z,800.00
2022-12-29T13:42:24.475Z,756.00
2022-12-29T13:43:24.435Z,796.00
2022-12-29T13:44:24.398Z,864.00
2022-12-29T13:45:24.401Z,920.00
2022-12-29T13:46:24.418Z,1000.00
2022-12-29T13:47:24.427Z,912.00
2022-12-29T13:48:24.387Z,808.00
2022-12-29T13:49:24.344Z,804.00
2022-12-29T13:50:24.411Z,776.00
2022-12-29T13:51:28.058Z,636.00
2022-12-29T13:52:24.304Z,588.00
2022-12-29T13:53:24.287Z,556.00
2022-12-29T13:54:24.265Z,496.00
2022-12-29T13:55:24.264Z,496.00
2022-12-29T13:56:24.241Z,540.00
2022-12-29T13:57:27.634Z,692.00
2022-12-29T13:58:24.288Z,848.00
2022-12-29T13:59:24.202Z,1324.00
2022-12-29T14:00:24.188Z,1828.00
2022-12-29T14:01:24.444Z,2488.00
2022-12-29T14:02:24.426Z,2656.00
2022-12-29T14:03:30.051Z,2704.00
2022-12-29T14:04:25.150Z,2100.00
2022-12-29T14:05:24.125Z,1880.00
2022-12-29T14:06:24.108Z,1588.00
2022-12-29T14:07:24.102Z,1176.00
2022-12-29T14:08:24.071Z,1148.00
2022-12-29T14:09:24.134Z,1228.00
2022-12-29T14:10:24.060Z,968.00
2022-12-29T14:11:24.057Z,644.00
2022-12-29T14:12:24.032Z,500.00
2022-12-29T14:13:24.110Z,428.00
2022-12-29T14:14:23.991Z,356.00
2022-12-29T14:15:24.008Z,348.00
2022-12-29T14:16:24.016Z,320.00
2022-12-29T14:17:23.976Z,352.00
2022-12-29T14:18:23.940Z,488.00
2022-12-29T14:19:23.931Z,560.00
2022-12-29T14:20:23.933Z,560.00
2022-12-29T14:21:23.913Z,500.00
2022-12-29T14:22:28.880Z,476.00
2022-12-29T14:23:24.880Z,532.00
2022-12-29T14:24:23.868Z,724.00
2022-12-29T14:25:23.872Z,736.00
2022-12-29T14:26:24.081Z,728.00
2022-12-29T14:27:23.852Z,792.00
2022-12-29T14:28:23.814Z,800.00
2022-12-29T14:29:23.809Z,772.00
2022-12-29T14:30:23.790Z,776.00
2022-12-29T14:31:23.854Z,996.00
2022-12-29T14:32:23.775Z,1392.00
2022-12-29T14:33:23.755Z,2060.00
2022-12-29T14:34:23.728Z,2964.00
2022-12-29T14:35:23.718Z,2596.00
2022-12-29T14:36:23.723Z,2384.00
2022-12-29T14:37:23.720Z,2040.00
2022-12-29T14:38:23.680Z,1528.00
2022-12-29T14:39:23.660Z,1400.00
2022-12-29T14:40:23.649Z,1604.00
2022-12-29T14:41:23.653Z,1448.00
2022-12-29T14:42:23.845Z,1316.00
2022-12-29T14:43:23.623Z,1056.00
2022-12-29T14:44:23.602Z,1020.00
2022-12-29T14:45:23.586Z,952.00
2022-12-29T14:46:23.577Z,1016.00
2022-12-29T14:47:23.604Z,1028.00
2022-12-29T14:48:23.549Z,888.00
2022-12-29T14:49:23.557Z,756.00
2022-12-29T14:50:23.521Z,652.00
2022-12-29T14:51:23.508Z,720.00
2022-12-29T14:52:23.498Z,844.00
2022-12-29T14:53:23.476Z,660.00
2022-12-29T14:54:23.472Z,588.00
2022-12-29T14:55:23.449Z,760.00
2022-12-29T14:56:23.447Z,700.00
2022-12-29T14:57:23.442Z,500.00
2022-12-29T14:58:23.417Z,472.00
2022-12-29T14:59:23.397Z,528.00
2022-12-29T15:00:23.397Z,460.00
2022-12-29T15:01:23.508Z,360.00
2022-12-29T15:02:23.491Z,312.00
2022-12-29T15:03:23.413Z,248.00
2022-12-29T15:04:23.339Z,192.00
2022-12-29T15:05:23.335Z,132.00
2022-12-29T15:06:23.346Z,108.00
2022-12-29T15:07:23.308Z,96.00
2022-12-29T15:08:23.302Z,100.00
2022-12-29T15:09:23.266Z,104.00
2022-12-29T15:10:23.267Z,112.00
2022-12-29T15:11:23.263Z,108.00
2022-12-29T15:12:23.255Z,112.00
2022-12-29T15:13:23.208Z,92.00
2022-12-29T15:14:23.194Z,92.00
2022-12-29T15:15:23.196Z,76.00
2022-12-29T15:16:23.233Z,80.00
2022-12-29T15:17:23.164Z,84.00
2022-12-29T15:18:23.167Z,64.00
2022-12-29T15:19:23.134Z,60.00
2022-12-29T15:20:23.125Z,48.00
2022-12-29T15:21:23.107Z,48.00
2022-12-29T15:22:23.120Z,36.00
2022-12-29T15:23:23.090Z,40.00
2022-12-29T15:24:23.067Z,36.00
2022-12-29T15:25:23.052Z,44.00
2022-12-29T15:26:23.078Z,44.00
2022-12-29T15:27:23.063Z,52.00
2022-12-29T15:28:23.015Z,48.00
2022-12-29T15:29:23.002Z,56.00
2022-12-29T15:30:22.994Z,44.00
2022-12-29T15:31:29.782Z,40.00
2022-12-29T15:32:23.988Z,40.00
2022-12-29T15:33:22.953Z,36.00
2022-12-29T15:34:22.970Z,32.00
2022-12-29T15:35:22.944Z,24.00
2022-12-29T15:36:22.942Z,16.00
2022-12-29T15:37:22.918Z,12.00
2022-12-29T15:38:30.361Z,12.00
2022-12-29T15:39:23.883Z,8.00
2022-12-29T15:40:22.862Z,8.00
2022-12-29T15:41:22.853Z,8.00
2022-12-29T15:42:22.844Z,4.00
2022-12-29T15:43:22.841Z,0.00
2022-12-29T15:44:22.801Z,4.00
2022-12-29T15:45:22.791Z,4.00
2022-12-29T15:46:22.849Z,0.00
2022-12-29T15:47:22.785Z,0.00
2022-12-29T15:48:22.751Z,0.00
2022-12-29T15:49:26.176Z,0.00
2022-12-29T15:50:23.730Z,0.00
2022-12-29T15:51:22.734Z,0.00
2022-12-29T15:52:22.701Z,0.00
2022-12-29T15:53:22.688Z,0.00
2022-12-29T15:54:22.698Z,0.00
2022-12-29T15:55:22.664Z,0.00
2022-12-29T15:56:22.697Z,0.00
2022-12-29T15:57:22.641Z,0.00
2022-12-29T15:58:22.613Z,0.00
2022-12-29T15:59:22.609Z,0.00
2022-12-29T16:00:22.606Z,0.00
2022-12-29T16:01:22.710Z,0.00
2022-12-29T16:02:22.737Z,0.00
2022-12-29T16:03:22.658Z,0.00
2022-12-29T16:04:22.539Z,0.00
2022-12-29T16:05:22.549Z,0.00
2022-12-29T16:06:22.590Z,0.00
2022-12-29T16:07:22.511Z,0.00
2022-12-29T16:08:22.555Z,0.00
2022-12-29T16:09:22.540Z,0.00
2022-12-29T16:10:22.459Z,0.00
2022-12-29T16:11:22.467Z,0.00
2022-12-29T16:12:22.478Z,0.00
2022-12-29T16:13:22.430Z,0.00
2022-12-29T16:14:22.493Z,0.00
2022-12-29T16:15:22.443Z,0.00
2022-12-29T16:16:22.451Z,0.00
2022-12-29T16:17:22.370Z,0.00
2022-12-29T16:18:22.417Z,0.00
2022-12-29T16:19:22.364Z,0.00
2022-12-29T16:20:22.407Z,0.00
2022-12-29T16:21:22.467Z,0.00
2022-12-29T16:22:22.358Z,0.00
2022-12-29T16:23:22.304Z,0.00
2022-12-29T16:24:22.433Z,0.00
2022-12-29T16:25:22.294Z,0.00
2022-12-29T16:26:22.328Z,0.00
2022-12-29T16:27:22.286Z,0.00
2022-12-29T16:28:22.242Z,0.00
2022-12-29T16:29:22.226Z,0.00
2022-12-29T16:30:24.263Z,0.00
2022-12-29T16:31:23.281Z,0.00
2022-12-29T16:32:22.208Z,0.00
2022-12-29T16:33:22.184Z,0.00
2022-12-29T16:34:22.152Z,0.00
2022-12-29T16:35:22.133Z,0.00
2022-12-29T16:36:22.135Z,0.00
2022-12-29T16:37:22.175Z,0.00
2022-12-29T16:38:22.104Z,0.00
2022-12-29T16:39:22.163Z,0.00
2022-12-29T16:40:22.065Z,0.00
2022-12-29T16:41:22.065Z,0.00
2022-12-29T16:42:22.055Z,0.00
2022-12-29T16:43:22.080Z,0.00
2022-12-29T16:44:22.043Z,0.00
2022-12-29T16:45:22.061Z,0.00
2022-12-29T16:46:22.148Z,0.00
2022-12-29T16:47:21.999Z,0.00
2022-12-29T16:48:21.986Z,0.00
2022-12-29T16:49:24.697Z,0.00
2022-12-29T16:50:28.123Z,0.00
2022-12-29T16:51:22.945Z,0.00
2022-12-29T16:52:21.932Z,0.00
2022-12-29T16:53:21.915Z,0.00
2022-12-29T16:54:21.906Z,0.00
2022-12-29T16:55:21.885Z,0.00
2022-12-29T16:56:21.863Z,0.00
2022-12-29T16:57:21.871Z,0.00
2022-12-29T16:58:21.840Z,0.00
2022-12-29T16:59:21.831Z,0.00
2022-12-29T17:00:21.826Z,0.00
2022-12-29T17:01:21.890Z,0.00
2022-12-29T17:02:22.124Z,0.00
2022-12-29T17:03:21.848Z,0.00
2022-12-29T17:04:21.762Z,0.00
2022-12-29T17:05:21.769Z,0.00
2022-12-29T17:06:21.730Z,0.00
2022-12-29T17:07:21.743Z,0.00
2022-12-29T17:08:21.722Z,0.00
2022-12-29T17:09:21.701Z,0.00
2022-12-29T17:10:21.683Z,0.00
2022-12-29T17:11:21.681Z,0.00
2022-12-29T17:12:21.692Z,0.00
2022-12-29T17:13:21.662Z,0.00
2022-12-29T17:14:21.632Z,0.00
2022-12-29T17:15:21.643Z,0.00
2022-12-29T17:16:21.686Z,0.00
2022-12-29T17:17:21.642Z,0.00
2022-12-29T17:18:21.582Z,0.00
2022-12-29T17:19:21.568Z,0.00
2022-12-29T17:20:21.574Z,0.00
2022-12-29T17:21:21.566Z,0.00
2022-12-29T17:22:21.543Z,0.00
2022-12-29T17:23:26.404Z,0.00
2022-12-29T17:24:22.499Z,0.00
2022-12-29T17:25:21.496Z,0.00
2022-12-29T17:26:21.470Z,0.00
2022-12-29T17:27:21.519Z,0.00
2022-12-29T17:28:21.448Z,0.00
2022-12-29T17:29:21.449Z,0.00
2022-12-29T17:30:21.427Z,0.00
2022-12-29T17:31:21.500Z,0.00
2022-12-29T17:32:21.400Z,0.00
2022-12-29T17:33:21.424Z,0.00
2022-12-29T17:34:21.377Z,0.00
2022-12-29T17:35:21.359Z,0.00
2022-12-29T17:36:21.357Z,0.00
2022-12-29T17:37:21.346Z,0.00
2022-12-29T17:38:21.344Z,0.00
2022-12-29T17:39:21.332Z,0.00
2022-12-29T17:40:21.295Z,0.00
2022-12-29T17:41:21.316Z,0.00
2022-12-29T17:42:21.283Z,0.00
2022-12-29T17:43:21.297Z,0.00
2022-12-29T17:44:21.245Z,0.00
2022-12-29T17:45:21.249Z,0.00
2022-12-29T17:46:21.259Z,0.00
2022-12-29T17:47:21.226Z,0.00
2022-12-29T17:48:21.225Z,0.00
2022-12-29T17:49:21.186Z,0.00
2022-12-29T17:50:21.164Z,0.00
2022-12-29T17:51:21.170Z,0.00
2022-12-29T17:52:21.149Z,0.00